Time;durP1;ratioP1;P1;durP2;ratioP2;P2;SDS_P1;SDS_P2;PMS_P1;PMS_P2;Temp;Humidity;BMP_temperature;BMP_pressure;BME280_temperature;BME280_humidity;BME280_pressure;Samples;Min_cycle;Max_cycle;Signal;HPM_P1;HPM_P2
2022/11/07 00:01:11;;;;;;;;;;;;;;;19.23;44.67;99389.22;4466620;32;35333;-84
2022/11/07 00:03:39;;;;;;;;;;;;;;;19.10;45.06;99385.13;4468064;32;34434;-83
2022/11/07 00:06:06;;;;;;;;;;;;;;;19.18;44.80;99380.56;4467349;32;34525;-83
2022/11/07 00:08:33;;;;;;;;;;;;;;;19.24;44.61;99379.56;4467494;32;34161;-83
2022/11/07 00:11:01;;;;;;;;;;;;;;;18.91;45.06;99385.44;4453174;32;34323;-84
2022/11/07 00:13:28;;;;;;;;;;;;;;;19.03;44.92;99391.37;4453692;32;33192;-83
2022/11/07 00:16:03;;;;;;;;;;;;;;;19.02;44.95;99387.88;4452040;32;34881;-84
2022/11/07 00:18:30;;;;;;;;;;;;;;;19.18;44.66;99388.47;4464724;32;34005;-83
2022/11/07 00:21:04;;;;;;;;;;;;;;;19.09;44.89;99391.25;4467752;32;34020;-84
2022/11/07 00:23:31;;;;;;;;;;;;;;;19.26;44.54;99399.69;4466813;32;33438;-85
2022/11/07 00:26:06;;;;;;;;;;;;;;;19.18;44.63;99401.59;4467287;32;34938;-84
2022/11/07 00:28:34;;;;;;;;;;;;;;;19.18;44.67;99404.22;4467850;32;35203;-86
2022/11/07 00:31:01;;;;;;;;;;;;;;;19.19;44.75;99406.81;4467035;32;35047;-85
2022/11/07 00:33:28;;;;;;;;;;;;;;;19.28;44.66;99408.44;4456990;32;33594;-85
2022/11/07 00:35:56;;;;;;;;;;;;;;;19.33;44.57;99417.09;4472546;32;33497;-85
2022/11/07 00:38:23;;;;;;;;;;;;;;;19.26;44.75;99414.59;4466177;32;33527;-85
2022/11/07 00:41:00;;;;;;;;;;;;;;;18.91;45.50;99423.97;4466536;32;34775;-83
2022/11/07 00:43:28;;;;;;;;;;;;;;;18.80;45.44;99411.03;4470564;32;33471;-85
2022/11/07 00:45:55;;;;;;;;;;;;;;;18.30;46.47;99409.16;4466406;32;34528;-84
2022/11/07 00:48:22;;;;;;;;;;;;;;;17.61;48.05;99407.41;4466592;32;33971;-84
2022/11/07 00:50:50;;;;;;;;;;;;;;;18.52;46.10;99413.19;4453417;32;34171;-84
2022/11/07 00:53:17;;;;;;;;;;;;;;;18.52;46.21;99405.31;4452997;32;33410;-84
2022/11/07 00:55:44;;;;;;;;;;;;;;;18.39;46.77;99399.37;4452305;32;33987;-86
2022/11/07 00:58:11;;;;;;;;;;;;;;;18.35;46.92;99408.19;4471552;32;35194;-84
2022/11/07 01:00:40;;;;;;;;;;;;;;;18.66;46.40;99402.47;4480086;32;35138;-85
2022/11/07 01:05:54;;;;;;;;;;;;;;;18.78;46.37;99412.78;4453864;32;34036;-86
2022/11/07 01:08:22;;;;;;;;;;;;;;;18.76;46.27;99414.59;4466765;32;34182;-86
2022/11/07 01:10:49;;;;;;;;;;;;;;;18.86;46.02;99408.28;4467289;32;34058;-84
2022/11/07 01:13:16;;;;;;;;;;;;;;;18.96;45.93;99415.13;4468277;32;33350;-87
2022/11/07 01:15:43;;;;;;;;;;;;;;;19.17;45.57;99407.75;4466404;32;34918;-86
2022/11/07 01:18:11;;;;;;;;;;;;;;;19.18;45.71;99415.59;4464474;32;34365;-86
2022/11/07 01:20:39;;;;;;;;;;;;;;;19.28;45.57;99410.16;4463699;32;33973;-85
2022/11/07 01:23:06;;;;;;;;;;;;;;;19.27;45.67;99405.81;4467078;32;34336;-85
2022/11/07 01:25:37;;;;;;;;;;;;;;;19.28;45.03;99404.91;4467220;32;34193;-86
2022/11/07 01:28:05;;;;;;;;;;;;;;;19.22;45.19;99405.03;4454312;32;34030;-83
2022/11/07 01:30:32;;;;;;;;;;;;;;;18.22;47.31;99407.53;4451686;32;34186;-84
2022/11/07 01:33:00;;;;;;;;;;;;;;;18.56;46.45;99400.88;4437553;32;33468;-84
2022/11/07 01:35:27;;;;;;;;;;;;;;;18.76;46.08;99409.34;4479432;32;33729;-84
2022/11/07 01:37:54;;;;;;;;;;;;;;;18.80;45.95;99405.78;4472307;32;34281;-83
2022/11/07 01:40:21;;;;;;;;;;;;;;;18.98;45.58;99406.34;4466836;32;34412;-86
2022/11/07 01:42:49;;;;;;;;;;;;;;;18.86;45.83;99416.16;4466409;32;34042;-84
2022/11/07 01:45:23;;;;;;;;;;;;;;;18.94;45.67;99408.13;4465269;32;34750;-83
2022/11/07 01:47:50;;;;;;;;;;;;;;;19.13;45.38;99408.69;4466818;32;34197;-84
2022/11/07 01:50:17;;;;;;;;;;;;;;;19.26;45.12;99415.47;4480272;32;35334;-82
2022/11/07 01:52:45;;;;;;;;;;;;;;;19.28;45.13;99413.69;4482373;32;34224;-83
2022/11/07 01:55:20;;;;;;;;;;;;;;;19.38;45.11;99415.22;4467176;32;33574;-84
2022/11/07 01:57:53;;;;;;;;;;;;;;;19.29;45.44;99419.81;4452339;32;35199;-83
2022/11/07 02:00:20;;;;;;;;;;;;;;;19.37;45.34;99415.28;4452262;32;34195;-85
2022/11/07 02:02:50;;;;;;;;;;;;;;;19.52;45.05;99406.22;4466217;32;34600;-86
2022/11/07 02:05:19;;;;;;;;;;;;;;;19.47;45.20;99408.91;4442447;32;33924;-84
2022/11/07 02:07:47;;;;;;;;;;;;;;;19.39;45.30;99419.56;4448453;32;34555;-86
2022/11/07 02:10:14;;;;;;;;;;;;;;;19.45;45.19;99416.84;4465924;32;34249;-85
2022/11/07 02:12:41;;;;;;;;;;;;;;;19.47;45.28;99418.56;4449045;32;32183;-85
2022/11/07 02:15:09;;;;;;;;;;;;;;;19.52;45.22;99419.38;4468965;32;34978;-86
2022/11/07 02:17:36;;;;;;;;;;;;;;;19.55;45.11;99411.44;4467016;32;35220;-85
2022/11/07 02:20:03;;;;;;;;;;;;;;;19.64;44.97;99412.13;4451713;32;34184;-85
2022/11/07 02:22:39;;;;;;;;;;;;;;;19.61;45.05;99414.78;4465837;32;33292;-83
2022/11/07 02:25:07;;;;;;;;;;;;;;;19.51;45.36;99412.34;4451885;32;34190;-86
2022/11/07 02:27:35;;;;;;;;;;;;;;;19.64;45.05;99420.00;4462393;32;34259;-85
2022/11/07 02:30:06;;;;;;;;;;;;;;;19.63;45.17;99406.91;4451691;32;34372;-85
2022/11/07 02:32:34;;;;;;;;;;;;;;;19.67;44.87;99412.06;4465523;32;33111;-85
2022/11/07 02:35:02;;;;;;;;;;;;;;;19.62;45.04;99410.41;4460204;32;35021;-85
2022/11/07 02:37:33;;;;;;;;;;;;;;;19.43;45.42;99413.41;4461023;32;35143;-86
2022/11/07 02:40:02;;;;;;;;;;;;;;;19.61;44.95;99403.41;4467242;32;34453;-83
2022/11/07 02:42:42;;;;;;;;;;;;;;;19.67;44.95;99400.69;4458915;32;34036;-86
2022/11/07 02:45:13;;;;;;;;;;;;;;;19.51;45.39;99396.56;4468134;32;35150;-84
2022/11/07 02:47:40;;;;;;;;;;;;;;;19.56;45.33;99400.00;4453978;32;34219;-84
2022/11/07 02:50:09;;;;;;;;;;;;;;;19.64;45.09;99396.34;4468116;32;34270;-86
2022/11/07 02:52:36;;;;;;;;;;;;;;;19.61;45.20;99403.41;4467345;32;33680;-85
2022/11/07 02:55:04;;;;;;;;;;;;;;;19.62;45.26;99403.41;4467617;32;34316;-84
2022/11/07 03:00:17;;;;;;;;;;;;;;;19.72;44.98;99403.22;4467509;32;34421;-84
2022/11/07 03:02:47;;;;;;;;;;;;;;;19.52;45.50;99391.31;4467846;32;33483;-84
2022/11/07 03:05:15;;;;;;;;;;;;;;;19.16;46.09;99401.59;4457909;32;35048;-84
2022/11/07 03:07:43;;;;;;;;;;;;;;;19.02;46.62;99397.53;4448693;32;35122;-86
2022/11/07 03:10:10;;;;;;;;;;;;;;;19.38;45.73;99393.34;4467557;32;34452;-84
2022/11/07 03:12:37;;;;;;;;;;;;;;;19.28;45.96;99397.91;4467342;32;34283;-85
2022/11/07 03:15:05;;;;;;;;;;;;;;;19.49;45.55;99398.37;4467377;32;34903;-84
2022/11/07 03:17:33;;;;;;;;;;;;;;;19.58;45.38;99395.56;4467894;32;34463;-84
2022/11/07 03:20:00;;;;;;;;;;;;;;;19.46;45.76;99399.31;4468190;32;35105;-85
2022/11/07 03:22:27;;;;;;;;;;;;;;;19.61;45.46;99403.41;4467322;32;33638;-85
2022/11/07 03:24:55;;;;;;;;;;;;;;;19.66;45.37;99404.19;4467769;32;34979;-84
2022/11/07 03:27:22;;;;;;;;;;;;;;;19.50;45.80;99403.59;4470889;32;35082;-84
2022/11/07 03:29:49;;;;;;;;;;;;;;;19.55;45.81;99411.44;4467813;32;35166;-85
2022/11/07 03:32:16;;;;;;;;;;;;;;;19.50;45.90;99402.75;4467741;32;33462;-84
2022/11/07 03:34:43;;;;;;;;;;;;;;;19.50;45.70;99405.38;4467962;32;33674;-85
2022/11/07 03:37:11;;;;;;;;;;;;;;;19.79;45.21;99410.09;4468122;32;34134;-84
2022/11/07 03:39:38;;;;;;;;;;;;;;;19.73;45.26;99403.16;4467798;32;34182;-85
2022/11/07 03:42:05;;;;;;;;;;;;;;;19.69;45.35;99415.50;4468077;32;32541;-87
2022/11/07 03:44:32;;;;;;;;;;;;;;;19.68;45.48;99405.03;4467594;32;33911;-86
2022/11/07 03:47:00;;;;;;;;;;;;;;;19.75;45.34;99404.03;4467005;32;34884;-86
2022/11/07 03:49:27;;;;;;;;;;;;;;;19.79;45.22;99413.56;4468470;32;34648;-85
2022/11/07 03:51:54;;;;;;;;;;;;;;;19.41;45.98;99409.06;4468378;32;34181;-86
2022/11/07 03:54:21;;;;;;;;;;;;;;;19.55;45.72;99408.78;4467748;32;33608;-84
2022/11/07 03:56:48;;;;;;;;;;;;;;;19.75;45.28;99413.69;4454707;32;33877;-85
2022/11/07 03:59:16;;;;;;;;;;;;;;;19.82;45.19;99415.28;4452599;32;34987;-83
2022/11/07 04:01:44;;;;;;;;;;;;;;;19.86;45.11;99416.94;4480192;32;34240;-84
2022/11/07 04:04:12;;;;;;;;;;;;;;;19.78;45.31;99424.16;4467624;32;33976;-85
2022/11/07 04:06:39;;;;;;;;;;;;;;;19.75;45.45;99429.47;4467145;32;34018;-84
2022/11/07 04:09:06;;;;;;;;;;;;;;;19.70;45.43;99434.81;4471332;32;34102;-86
2022/11/07 04:17:18;;;;;;;;;;;;;;;19.86;44.90;99438.00;4483529;32;34166;-86
2022/11/07 04:19:46;;;;;;;;;;;;;;;19.64;45.28;99429.69;4474713;32;34058;-86
2022/11/07 04:22:13;;;;;;;;;;;;;;;19.80;44.94;99427.59;4453247;32;34463;-83
2022/11/07 04:24:41;;;;;;;;;;;;;;;19.60;45.37;99425.34;4467422;32;34129;-83
2022/11/07 04:30:17;;;;;;;;;;;;;;;19.90;44.77;99430.00;4474194;32;34273;-85
2022/11/07 04:32:46;;;;;;;;;;;;;;;19.98;44.56;99427.22;4453560;32;33364;-86
2022/11/07 04:35:13;;;;;;;;;;;;;;;20.06;44.26;99424.41;4453285;32;34100;-85
2022/11/07 04:37:40;;;;;;;;;;;;;;;20.06;44.21;99427.06;4467344;32;34445;-86
2022/11/07 04:40:08;;;;;;;;;;;;;;;20.08;44.13;99420.00;4467321;32;34785;-86
2022/11/07 04:42:36;;;;;;;;;;;;;;;19.86;44.30;99417.81;4467394;32;33490;-85
2022/11/07 04:45:03;;;;;;;;;;;;;;;19.84;44.45;99419.59;4467646;32;34893;-85
2022/11/07 04:47:30;;;;;;;;;;;;;;;19.92;44.42;99412.41;4467561;32;34523;-86
2022/11/07 04:50:03;;;;;;;;;;;;;;;19.93;44.35;99414.16;4467533;32;34756;-85
2022/11/07 04:52:30;;;;;;;;;;;;;;;19.93;44.34;99418.56;4467357;32;33437;-84
2022/11/07 04:54:57;;;;;;;;;;;;;;;19.87;44.21;99419.53;4464349;32;34177;-87
2022/11/07 04:57:24;;;;;;;;;;;;;;;19.88;44.23;99420.41;4440697;32;35168;-85
2022/11/07 04:59:52;;;;;;;;;;;;;;;19.76;44.41;99424.16;4457174;32;34174;-86
2022/11/07 05:02:19;;;;;;;;;;;;;;;19.51;44.71;99421.13;4470656;32;33608;-84
2022/11/07 05:04:46;;;;;;;;;;;;;;;19.67;44.39;99421.72;4467956;32;33439;-86
2022/11/07 05:07:14;;;;;;;;;;;;;;;19.12;45.52;99425.34;4479695;32;35198;-85
2022/11/07 05:09:41;;;;;;;;;;;;;;;19.00;45.75;99429.06;4467236;32;34834;-86
2022/11/07 05:12:08;;;;;;;;;;;;;;;19.37;44.94;99429.28;4467162;32;35053;-85
2022/11/07 05:14:35;;;;;;;;;;;;;;;19.32;44.89;99431.13;4467256;32;34257;-86
2022/11/07 05:17:02;;;;;;;;;;;;;;;19.32;44.85;99439.03;4464904;32;34371;-84
2022/11/07 05:19:30;;;;;;;;;;;;;;;19.27;45.00;99427.69;4451434;32;35240;-85
2022/11/07 05:24:43;;;;;;;;;;;;;;;19.38;44.65;99424.88;4465460;32;34238;-83
2022/11/07 05:27:17;;;;;;;;;;;;;;;19.23;44.92;99431.28;4466651;32;34331;-85
2022/11/07 05:29:45;;;;;;;;;;;;;;;19.40;44.57;99421.34;4466424;32;34617;-86
2022/11/07 05:32:12;;;;;;;;;;;;;;;19.47;44.37;99429.94;4477601;32;34301;-83
2022/11/07 05:34:39;;;;;;;;;;;;;;;19.50;44.30;99424.63;4466577;32;33841;-84
2022/11/07 05:37:07;;;;;;;;;;;;;;;19.40;44.55;99421.34;4466871;32;35213;-85
2022/11/07 05:39:34;;;;;;;;;;;;;;;19.44;44.47;99423.00;4466701;32;34784;-84
2022/11/07 05:42:02;;;;;;;;;;;;;;;19.19;44.97;99435.72;4466049;32;34385;-87
2022/11/07 05:44:29;;;;;;;;;;;;;;;19.24;45.01;99435.63;4466608;32;34481;-83
2022/11/07 05:46:57;;;;;;;;;;;;;;;19.31;44.90;99445.16;4466685;32;34403;-84
2022/11/07 05:49:24;;;;;;;;;;;;;;;18.62;46.57;99464.66;4451474;32;33859;-85
2022/11/07 05:51:52;;;;;;;;;;;;;;;18.06;47.94;99470.72;4479001;32;33461;-86
2022/11/07 05:54:19;;;;;;;;;;;;;;;18.64;46.88;99469.91;4470791;32;34791;-85
2022/11/07 05:56:46;;;;;;;;;;;;;;;18.94;46.12;99472.09;4466111;32;35101;-83
2022/11/07 05:59:14;;;;;;;;;;;;;;;19.22;45.52;99489.16;4462773;32;34581;-83
2022/11/07 06:01:41;;;;;;;;;;;;;;;18.77;46.62;99484.63;4466500;32;34365;-86
2022/11/07 06:04:08;;;;;;;;;;;;;;;19.13;45.81;99485.78;4466566;32;34405;-86
2022/11/07 06:06:35;;;;;;;;;;;;;;;19.18;45.72;99481.31;4465983;32;34333;-82
2022/11/07 06:09:03;;;;;;;;;;;;;;;19.39;45.33;99481.81;4467049;32;34070;-85
2022/11/07 06:11:30;;;;;;;;;;;;;;;18.81;46.52;99488.94;4470987;32;33302;-86
2022/11/07 06:13:57;;;;;;;;;;;;;;;19.11;46.10;99489.31;4474640;32;34621;-85
2022/11/07 06:16:25;;;;;;;;;;;;;;;19.29;45.57;99491.66;4469458;32;34066;-86
2022/11/07 06:18:53;;;;;;;;;;;;;;;19.53;45.10;99492.97;4460138;32;34455;-85
2022/11/07 06:21:20;;;;;;;;;;;;;;;19.15;45.99;99507.63;4468150;32;33659;-86
2022/11/07 06:23:47;;;;;;;;;;;;;;;19.26;45.86;99515.34;4475384;32;33911;-82
2022/11/07 06:26:14;;;;;;;;;;;;;;;19.40;45.56;99528.28;4459617;32;35166;-92
2022/11/07 06:28:42;;;;;;;;;;;;;;;18.77;47.12;99521.37;4468510;32;34422;-90
2022/11/07 06:31:09;;;;;;;;;;;;;;;19.08;46.55;99520.91;4462815;32;33761;-84
2022/11/07 06:33:36;;;;;;;;;;;;;;;19.03;46.78;99533.25;4462712;32;34342;-91
2022/11/07 06:36:08;;;;;;;;;;;;;;;19.40;46.07;99544.06;4483408;32;34476;-92
2022/11/07 06:38:35;;;;;;;;;;;;;;;19.22;46.69;99545.22;4456409;32;34037;-83
2022/11/07 06:41:03;;;;;;;;;;;;;;;19.25;46.71;99545.16;4469181;32;34377;-84
2022/11/07 06:43:30;;;;;;;;;;;;;;;19.60;46.02;99546.31;4472774;32;35011;-86
2022/11/07 06:46:03;;;;;;;;;;;;;;;19.57;46.14;99541.09;4478056;32;34824;-85
2022/11/07 06:48:31;;;;;;;;;;;;;;;19.71;45.82;99548.81;4463065;32;34804;-86
2022/11/07 06:50:59;;;;;;;;;;;;;;;19.72;45.72;99540.88;4461976;32;33534;-84
2022/11/07 06:53:26;;;;;;;;;;;;;;;19.89;45.28;99546.69;4468175;32;33536;-87
2022/11/07 06:55:54;;;;;;;;;;;;;;;19.30;46.55;99552.97;4468358;32;34364;-85
2022/11/07 06:58:21;;;;;;;;;;;;;;;18.53;47.91;99556.72;4468586;32;34536;-86
2022/11/07 07:00:48;;;;;;;;;;;;;;;18.72;47.50;99560.00;4468393;32;34049;-88
2022/11/07 07:03:16;;;;;;;;;;;;;;;18.15;48.93;99555.44;4467984;32;34382;-88
2022/11/07 07:05:44;;;;;;;;;;;;;;;19.10;46.35;99553.31;4468421;32;34245;-85
2022/11/07 07:08:11;;;;;;;;;;;;;;;18.58;47.63;99556.66;4468402;32;34363;-87
2022/11/07 07:10:40;;;;;;;;;;;;;;;19.06;46.66;99559.50;4454321;32;33386;-86
2022/11/07 07:13:07;;;;;;;;;;;;;;;18.75;47.25;99566.94;4454064;32;35089;-87
2022/11/07 07:15:34;;;;;;;;;;;;;;;19.06;46.79;99564.75;4467952;32;35341;-87
2022/11/07 07:18:18;;;;;;;;;;;;;;;18.25;48.61;99569.31;4468230;32;34589;-86
2022/11/07 07:20:46;;;;;;;;;;;;;;;18.77;47.32;99571.28;4467172;32;33129;-84
2022/11/07 07:23:13;;;;;;;;;;;;;;;18.99;46.92;99573.63;4465678;32;35137;-87
2022/11/07 07:25:40;;;;;;;;;;;;;;;18.59;47.70;99563.62;4467506;32;34331;-87
2022/11/07 07:28:07;;;;;;;;;;;;;;;18.63;47.80;99570.56;4468026;32;34268;-87
2022/11/07 07:30:34;;;;;;;;;;;;;;;19.07;46.67;99572.59;4453879;32;33605;-86
2022/11/07 07:33:02;;;;;;;;;;;;;;;18.40;48.13;99571.75;4468040;32;34901;-86
2022/11/07 07:35:29;;;;;;;;;;;;;;;18.18;48.97;99572.88;4467502;32;35023;-87
2022/11/07 07:37:56;;;;;;;;;;;;;;;18.23;49.19;99577.22;4467280;32;34990;-86
2022/11/07 07:40:24;;;;;;;;;;;;;;;18.17;49.20;99576.41;4467637;32;33243;-84
2022/11/07 07:42:51;;;;;;;;;;;;;;;18.15;49.19;99578.19;4467834;32;33914;-85
2022/11/07 07:45:18;;;;;;;;;;;;;;;18.68;47.84;99574.03;4465311;32;35044;-86
2022/11/07 07:47:45;;;;;;;;;;;;;;;17.85;49.77;99585.50;4455256;32;33070;-88
2022/11/07 07:50:13;;;;;;;;;;;;;;;18.09;49.21;99584.38;4452379;32;33577;-86
2022/11/07 07:52:41;;;;;;;;;;;;;;;17.51;50.81;99592.78;4438648;32;34321;-88
2022/11/07 07:55:08;;;;;;;;;;;;;;;16.24;54.25;99596.97;4452720;32;34198;-86
2022/11/07 07:57:40;;;;;;;;;;;;;;;17.19;51.96;99586.03;4452282;32;34961;-86
2022/11/07 08:00:07;;;;;;;;;;;;;;;17.25;51.83;99583.38;4452189;32;33395;-87
2022/11/07 08:02:37;;;;;;;;;;;;;;;17.68;50.98;99584.75;4437464;32;33869;-86
2022/11/07 08:05:05;;;;;;;;;;;;;;;17.79;50.68;99593.41;4436118;32;35100;-85
2022/11/07 08:07:32;;;;;;;;;;;;;;;17.97;50.05;99580.13;4437690;32;34121;-88
2022/11/07 08:10:00;;;;;;;;;;;;;;;17.72;50.35;99583.84;4436769;32;33446;-84
2022/11/07 08:12:49;;;;;;;;;;;;;;;17.71;50.97;99582.09;4440100;32;34878;-86
2022/11/07 08:15:17;;;;;;;;;;;;;;;17.45;51.65;99588.44;4437969;32;35276;-88
2022/11/07 08:17:44;;;;;;;;;;;;;;;18.08;50.31;99581.78;4438125;32;34942;-87
2022/11/07 08:20:12;;;;;;;;;;;;;;;18.44;49.34;99575.19;4442894;32;33433;-88
2022/11/07 08:22:39;;;;;;;;;;;;;;;18.39;49.48;99577.03;4436545;32;35137;-85
2022/11/07 08:25:07;;;;;;;;;;;;;;;18.19;49.69;99579.91;4436734;32;34387;-85
2022/11/07 08:27:35;;;;;;;;;;;;;;;17.70;50.59;99583.00;4436862;32;34455;-86
2022/11/07 08:30:03;;;;;;;;;;;;;;;18.31;49.25;99571.88;4430787;32;34442;-86
2022/11/07 08:32:30;;;;;;;;;;;;;;;17.94;50.41;99569.66;4451506;32;35646;-88
2022/11/07 08:34:57;;;;;;;;;;;;;;;18.24;49.46;99578.06;4452436;32;35035;-84
2022/11/07 08:37:25;;;;;;;;;;;;;;;18.35;49.04;99568.31;4451438;32;34961;-85
2022/11/07 08:39:52;;;;;;;;;;;;;;;17.88;50.07;99577.59;4451566;32;33931;-88
2022/11/07 08:42:19;;;;;;;;;;;;;;;17.76;50.44;99582.94;4451909;32;33727;-86
2022/11/07 08:44:46;;;;;;;;;;;;;;;16.74;53.23;99579.34;4451611;32;33867;-85
2022/11/07 08:47:13;;;;;;;;;;;;;;;17.35;51.80;99583.28;4452074;32;34174;-86
2022/11/07 08:49:41;;;;;;;;;;;;;;;16.61;53.56;99582.87;4452072;32;33184;-88
2022/11/07 08:52:08;;;;;;;;;;;;;;;17.95;50.26;99581.00;4451886;32;33603;-86
2022/11/07 08:54:35;;;;;;;;;;;;;;;17.99;50.07;99581.00;4452274;32;33914;-86
2022/11/07 08:57:02;;;;;;;;;;;;;;;18.26;49.55;99586.81;4451774;32;33835;-86
2022/11/07 08:59:29;;;;;;;;;;;;;;;17.49;51.24;99587.53;4458099;32;33062;-87
2022/11/07 09:01:57;;;;;;;;;;;;;;;17.47;51.21;99588.44;4466054;32;34308;-86
2022/11/07 09:04:44;;;;;;;;;;;;;;;17.86;50.65;99600.34;4454757;32;34254;-84
2022/11/07 09:07:12;;;;;;;;;;;;;;;18.48;49.05;99588.25;4466472;32;34053;-85
2022/11/07 09:09:39;;;;;;;;;;;;;;;18.66;48.49;99586.28;4453259;32;34895;-85
2022/11/07 09:12:06;;;;;;;;;;;;;;;18.67;48.79;99594.12;4467293;32;33876;-85
2022/11/07 09:14:33;;;;;;;;;;;;;;;18.66;48.81;99597.66;4467354;32;34096;-85
2022/11/07 09:17:00;;;;;;;;;;;;;;;18.89;48.25;99597.37;4465343;32;34983;-87
2022/11/07 09:19:28;;;;;;;;;;;;;;;18.58;48.31;99599.53;4467100;32;33646;-87
2022/11/07 09:21:56;;;;;;;;;;;;;;;17.70;50.89;99609.22;4460608;32;34169;-87
2022/11/07 09:24:23;;;;;;;;;;;;;;;17.62;51.39;99611.03;4463558;32;33831;-87
2022/11/07 09:26:50;;;;;;;;;;;;;;;18.64;48.50;99603.84;4466920;32;34213;-86
2022/11/07 09:29:17;;;;;;;;;;;;;;;17.85;50.69;99611.72;4467228;32;33717;-86
2022/11/07 09:31:44;;;;;;;;;;;;;;;18.10;50.16;99614.09;4465774;32;35086;-85
2022/11/07 09:34:12;;;;;;;;;;;;;;;17.76;50.52;99611.78;4465677;32;34377;-86
2022/11/07 09:36:39;;;;;;;;;;;;;;;17.61;51.22;99604.91;4466607;32;35183;-87
2022/11/07 09:39:06;;;;;;;;;;;;;;;17.89;50.51;99609.94;4466261;32;33581;-86
2022/11/07 09:41:36;;;;;;;;;;;;;;;18.24;50.14;99609.56;4465686;32;34341;-86
2022/11/07 09:44:03;;;;;;;;;;;;;;;18.10;49.99;99606.22;4465646;32;34472;-85
2022/11/07 09:46:32;;;;;;;;;;;;;;;17.68;51.32;99610.97;4467517;32;35163;-87
2022/11/07 09:49:19;;;;;;;;;;;;;;;17.95;50.71;99615.97;4453837;32;33548;-86
2022/11/07 09:51:47;;;;;;;;;;;;;;;17.59;51.80;99609.31;4453542;32;34806;-85
2022/11/07 09:54:15;;;;;;;;;;;;;;;17.81;51.46;99599.53;4459351;32;35167;-86
2022/11/07 09:56:43;;;;;;;;;;;;;;;18.22;50.18;99595.56;4449555;32;34004;-86
2022/11/07 09:59:30;;;;;;;;;;;;;;;18.22;50.16;99596.47;4463352;32;34637;-86
2022/11/07 10:01:58;;;;;;;;;;;;;;;17.99;50.71;99607.22;4450095;32;35363;-87
2022/11/07 10:04:25;;;;;;;;;;;;;;;18.59;48.97;99595.13;4448729;32;36304;-85
2022/11/07 10:06:55;;;;;;;;;;;;;;;19.17;47.47;99603.13;4462505;32;34129;-84
2022/11/07 10:09:41;;;;;;;;;;;;;;;18.96;47.90;99596.41;4450310;32;34439;-85
2022/11/07 10:12:29;;;;;;;;;;;;;;;18.59;48.57;99595.13;4463177;32;35040;-84
2022/11/07 10:15:13;;;;;;;;;;;;;;;18.71;48.59;99595.00;4448523;32;34422;-86
2022/11/07 10:17:44;;;;;;;;;;;;;;;18.29;49.61;99597.25;4449594;32;34250;-87
2022/11/07 10:20:17;;;;;;;;;;;;;;;18.92;48.11;99592.09;4462779;32;33541;-87
2022/11/07 10:22:55;;;;;;;;;;;;;;;18.86;48.42;99592.16;4449706;32;33994;-84
2022/11/07 10:25:24;;;;;;;;;;;;;;;19.11;47.78;99591.81;4462308;32;34237;-85
2022/11/07 10:28:07;;;;;;;;;;;;;;;18.92;48.70;99591.22;4463219;32;33949;-84
2022/11/07 10:30:34;;;;;;;;;;;;;;;19.41;47.67;99593.09;4453604;32;34317;-86
2022/11/07 10:33:08;;;;;;;;;;;;;;;19.42;47.18;99590.44;4452867;32;34896;-85
2022/11/07 10:35:36;;;;;;;;;;;;;;;19.11;47.63;99597.09;4467195;32;34462;-85
2022/11/07 10:38:36;;;;;;;;;;;;;;;18.76;48.69;99587.94;4448801;32;35120;-85
2022/11/07 10:41:06;;;;;;;;;;;;;;;18.88;48.65;99592.16;4443124;32;33644;-85
2022/11/07 10:43:35;;;;;;;;;;;;;;;18.05;50.35;99587.03;4448744;32;34287;-87
2022/11/07 10:46:03;;;;;;;;;;;;;;;19.27;47.42;99585.44;4448491;32;34271;-85
2022/11/07 10:48:32;;;;;;;;;;;;;;;19.02;48.01;99581.47;4448496;32;35134;-86
2022/11/07 10:50:59;;;;;;;;;;;;;;;19.32;47.42;99580.09;4449092;32;33226;-84
2022/11/07 10:53:26;;;;;;;;;;;;;;;19.41;47.69;99570.31;4462224;32;33730;-84
2022/11/07 10:55:55;;;;;;;;;;;;;;;19.80;46.22;99564.41;4462324;32;34098;-86
2022/11/07 10:58:26;;;;;;;;;;;;;;;19.66;46.11;99569.91;4448792;32;34460;-86
2022/11/07 11:01:02;;;;;;;;;;;;;;;19.19;46.04;99567.16;4467464;32;33607;-85
2022/11/07 11:03:31;;;;;;;;;;;;;;;19.09;46.67;99554.16;4464975;32;33061;-86
2022/11/07 11:06:30;;;;;;;;;;;;;;;19.18;47.14;99549.66;4453234;32;34494;-86
2022/11/07 11:08:58;;;;;;;;;;;;;;;18.82;47.48;99552.84;4467853;32;35261;-87
2022/11/07 11:11:30;;;;;;;;;;;;;;;19.27;46.95;99551.25;4453655;32;33252;-86
2022/11/07 11:14:09;;;;;;;;;;;;;;;19.30;46.65;99550.34;4466175;32;33796;-85
2022/11/07 11:16:37;;;;;;;;;;;;;;;18.39;47.84;99546.38;4448203;32;35208;-85
2022/11/07 11:19:05;;;;;;;;;;;;;;;18.63;47.45;99544.31;4443743;32;33892;-85
2022/11/07 11:21:42;;;;;;;;;;;;;;;19.30;46.17;99532.81;4461914;32;33466;-85
2022/11/07 11:24:11;;;;;;;;;;;;;;;19.55;45.85;99537.66;4465200;32;35186;-87
2022/11/07 11:26:39;;;;;;;;;;;;;;;19.40;46.59;99544.91;4467803;32;34934;-87
2022/11/07 11:29:08;;;;;;;;;;;;;;;18.66;47.06;99537.25;4454303;32;34106;-87
2022/11/07 11:31:39;;;;;;;;;;;;;;;18.79;47.65;99545.00;4467354;32;34005;-86
2022/11/07 11:34:11;;;;;;;;;;;;;;;19.39;46.32;99537.03;4446256;32;34961;-84
2022/11/07 11:36:40;;;;;;;;;;;;;;;19.48;46.40;99539.53;4453747;32;34676;-86
2022/11/07 11:39:15;;;;;;;;;;;;;;;19.45;47.46;99547.47;4453834;32;34354;-84
2022/11/07 11:41:55;;;;;;;;;;;;;;;18.55;49.56;99535.69;4453222;32;33226;-87
2022/11/07 11:44:25;;;;;;;;;;;;;;;18.42;49.91;99535.84;4453526;32;33994;-87
2022/11/07 11:46:54;;;;;;;;;;;;;;;18.42;49.53;99530.59;4453865;32;34385;-88
2022/11/07 11:49:24;;;;;;;;;;;;;;;18.45;49.89;99541.06;4454132;32;34326;-88
2022/11/07 11:51:51;;;;;;;;;;;;;;;18.54;49.12;99533.94;4453857;32;34114;-87
2022/11/07 11:54:18;;;;;;;;;;;;;;;19.24;47.77;99539.91;4467716;32;34511;-87
2022/11/07 11:56:52;;;;;;;;;;;;;;;18.98;48.23;99537.69;4466487;32;33817;-87
2022/11/07 11:59:22;;;;;;;;;;;;;;;18.55;49.42;99533.91;4453877;32;34141;-87
2022/11/07 12:02:07;;;;;;;;;;;;;;;18.81;49.05;99535.34;4468035;32;34313;-87
2022/11/07 12:04:41;;;;;;;;;;;;;;;18.99;48.42;99527.19;4467894;32;34278;-87
2022/11/07 12:07:31;;;;;;;;;;;;;;;19.18;47.87;99527.75;4466697;32;35202;-86
2022/11/07 12:10:06;;;;;;;;;;;;;;;19.06;48.76;99527.97;4459587;32;34887;-87
2022/11/07 12:12:45;;;;;;;;;;;;;;;18.89;49.90;99529.06;4453833;32;33313;-87
2022/11/07 12:15:16;;;;;;;;;;;;;;;19.10;48.86;99530.50;4453561;32;34036;-87
2022/11/07 12:17:47;;;;;;;;;;;;;;;18.58;49.88;99527.75;4453896;32;34468;-86
2022/11/07 12:20:17;;;;;;;;;;;;;;;18.32;50.42;99521.09;4467874;32;34789;-86
2022/11/07 12:22:51;;;;;;;;;;;;;;;18.03;50.51;99524.06;4454029;32;33295;-88
2022/11/07 12:25:23;;;;;;;;;;;;;;;18.35;49.32;99518.44;4453679;32;34277;-86
2022/11/07 12:27:57;;;;;;;;;;;;;;;18.16;49.89;99522.19;4453533;32;34809;-86
2022/11/07 12:30:40;;;;;;;;;;;;;;;18.51;48.96;99518.22;4453621;32;35186;-87
2022/11/07 12:33:10;;;;;;;;;;;;;;;17.88;49.02;99512.03;4467746;32;33471;-86
2022/11/07 12:35:44;;;;;;;;;;;;;;;17.99;49.34;99512.78;4468069;32;34596;-87
2022/11/07 12:38:17;;;;;;;;;;;;;;;18.35;47.44;99513.19;4453710;32;34103;-86
2022/11/07 12:40:48;;;;;;;;;;;;;;;18.07;48.34;99517.94;4467747;32;35425;-86
2022/11/07 12:43:35;;;;;;;;;;;;;;;17.78;49.48;99520.87;4467702;32;34289;-88
2022/11/07 12:46:21;;;;;;;;;;;;;;;17.95;48.67;99521.53;4457281;32;33911;-87
2022/11/07 12:48:57;;;;;;;;;;;;;;;17.33;49.88;99522.16;4467626;32;35227;-88
2022/11/07 12:51:43;;;;;;;;;;;;;;;17.84;48.52;99510.34;4453580;32;34472;-87
2022/11/07 12:54:29;;;;;;;;;;;;;;;17.57;48.57;99515.81;4467651;32;33331;-86
2022/11/07 12:56:56;;;;;;;;;;;;;;;17.78;48.66;99514.78;4467589;32;34036;-87
2022/11/07 12:59:27;;;;;;;;;;;;;;;17.87;48.26;99512.03;4467195;32;34913;-87
2022/11/07 13:01:54;;;;;;;;;;;;;;;17.69;49.05;99510.44;4453430;32;34444;-87
2022/11/07 13:04:33;;;;;;;;;;;;;;;18.18;47.41;99510.81;4467212;32;33603;-86
2022/11/07 13:07:03;;;;;;;;;;;;;;;17.38;49.51;99521.22;4453285;32;34243;-87
2022/11/07 13:09:50;;;;;;;;;;;;;;;16.58;51.51;99517.44;4467359;32;34486;-86
2022/11/07 13:12:22;;;;;;;;;;;;;;;17.98;48.26;99510.16;4467280;32;35372;-87
2022/11/07 13:14:50;;;;;;;;;;;;;;;18.17;48.71;99514.28;4453281;32;33667;-86
2022/11/07 13:17:18;;;;;;;;;;;;;;;18.07;47.98;99512.69;4453221;32;34192;-86